Terminal Aerodrome Forecast
Issued by NWS Medford, OR

Home | Current Version | Previous Version | Text Only | Print | Product List | Glossary On
Versions: 1 2 3 4 5 6 7 8 9 10 11 12 13
814
FTUS46 KMFR 242332 AAB
TAFMFR
TAF AMD
KMFR 242332Z 2500/2524 32012G18KT P6SM SKC
     FM250500 32005KT P6SM SKC
     FM250900 VRB03KT P6SM SKC
     FM252000 30005KT P6SM SKC
     FM252300 31009KT P6SM SKC=

USA.gov is the U.S. government's official web portal to all federal, state and local government web resources and services.